sensor_id;sensor_type;location;lat;lon;timestamp;P1;durP1;ratioP1;P2;durP2;ratioP2
13799;SDS011;6971;50.028;9.258;2023-06-14T00:00:27;8.03;;;4.87;;
13799;SDS011;6971;50.028;9.258;2023-06-14T00:05:28;4.83;;;4.43;;
13799;SDS011;6971;50.028;9.258;2023-06-14T00:10:29;9.60;;;4.77;;
13799;SDS011;6971;50.028;9.258;2023-06-14T00:15:31;6.07;;;4.40;;
13799;SDS011;6971;50.028;9.258;2023-06-14T00:20:32;4.87;;;4.43;;
13799;SDS011;6971;50.028;9.258;2023-06-14T00:25:33;5.13;;;4.63;;
13799;SDS011;6971;50.028;9.258;2023-06-14T00:30:33;6.93;;;4.72;;
13799;SDS011;6971;50.028;9.258;2023-06-14T00:35:34;6.23;;;4.63;;
13799;SDS011;6971;50.028;9.258;2023-06-14T00:40:34;5.83;;;4.80;;
13799;SDS011;6971;50.028;9.258;2023-06-14T00:45:34;7.15;;;5.22;;
13799;SDS011;6971;50.028;9.258;2023-06-14T00:50:35;7.27;;;4.40;;
13799;SDS011;6971;50.028;9.258;2023-06-14T00:55:36;5.97;;;4.90;;
13799;SDS011;6971;50.028;9.258;2023-06-14T01:00:36;5.38;;;4.70;;
13799;SDS011;6971;50.028;9.258;2023-06-14T01:05:37;6.97;;;4.83;;
13799;SDS011;6971;50.028;9.258;2023-06-14T01:10:46;5.53;;;4.57;;
13799;SDS011;6971;50.028;9.258;2023-06-14T01:15:53;5.67;;;4.40;;
13799;SDS011;6971;50.028;9.258;2023-06-14T01:20:55;5.47;;;4.97;;
13799;SDS011;6971;50.028;9.258;2023-06-14T01:25:56;5.57;;;4.47;;
13799;SDS011;6971;50.028;9.258;2023-06-14T01:30:56;5.73;;;4.40;;
13799;SDS011;6971;50.028;9.258;2023-06-14T01:35:57;5.47;;;4.90;;
13799;SDS011;6971;50.028;9.258;2023-06-14T01:40:58;5.83;;;5.13;;
13799;SDS011;6971;50.028;9.258;2023-06-14T01:46:01;8.27;;;4.90;;
13799;SDS011;6971;50.028;9.258;2023-06-14T01:51:03;6.37;;;5.07;;
13799;SDS011;6971;50.028;9.258;2023-06-14T01:56:03;9.10;;;5.30;;
13799;SDS011;6971;50.028;9.258;2023-06-14T02:01:04;5.00;;;4.50;;
13799;SDS011;6971;50.028;9.258;2023-06-14T02:06:05;5.37;;;4.83;;
13799;SDS011;6971;50.028;9.258;2023-06-14T02:11:05;7.47;;;5.07;;
13799;SDS011;6971;50.028;9.258;2023-06-14T02:16:05;6.20;;;5.53;;
13799;SDS011;6971;50.028;9.258;2023-06-14T02:21:06;7.47;;;5.27;;
13799;SDS011;6971;50.028;9.258;2023-06-14T02:26:06;5.30;;;4.78;;
13799;SDS011;6971;50.028;9.258;2023-06-14T02:31:09;8.47;;;5.07;;
13799;SDS011;6971;50.028;9.258;2023-06-14T02:36:09;10.32;;;5.70;;
13799;SDS011;6971;50.028;9.258;2023-06-14T02:41:09;6.60;;;5.03;;
13799;SDS011;6971;50.028;9.258;2023-06-14T02:46:10;10.27;;;6.10;;
13799;SDS011;6971;50.028;9.258;2023-06-14T02:51:11;6.17;;;5.40;;
13799;SDS011;6971;50.028;9.258;2023-06-14T02:56:12;8.83;;;5.40;;
13799;SDS011;6971;50.028;9.258;2023-06-14T03:01:13;6.40;;;5.77;;
13799;SDS011;6971;50.028;9.258;2023-06-14T03:06:14;6.17;;;5.57;;
13799;SDS011;6971;50.028;9.258;2023-06-14T03:11:16;5.50;;;5.00;;
13799;SDS011;6971;50.028;9.258;2023-06-14T03:16:20;7.03;;;5.30;;
13799;SDS011;6971;50.028;9.258;2023-06-14T03:21:22;7.03;;;5.63;;
13799;SDS011;6971;50.028;9.258;2023-06-14T03:26:22;6.75;;;5.85;;
13799;SDS011;6971;50.028;9.258;2023-06-14T03:31:22;6.77;;;5.37;;
13799;SDS011;6971;50.028;9.258;2023-06-14T03:36:23;9.07;;;6.50;;
13799;SDS011;6971;50.028;9.258;2023-06-14T03:41:25;6.53;;;5.93;;
13799;SDS011;6971;50.028;9.258;2023-06-14T03:46:26;6.37;;;5.63;;
13799;SDS011;6971;50.028;9.258;2023-06-14T03:51:26;7.60;;;6.10;;
13799;SDS011;6971;50.028;9.258;2023-06-14T03:56:28;7.67;;;6.00;;
13799;SDS011;6971;50.028;9.258;2023-06-14T04:01:28;11.20;;;9.23;;
13799;SDS011;6971;50.028;9.258;2023-06-14T04:06:29;14.77;;;10.93;;
13799;SDS011;6971;50.028;9.258;2023-06-14T04:11:32;13.43;;;8.83;;
13799;SDS011;6971;50.028;9.258;2023-06-14T04:16:33;9.60;;;7.63;;
13799;SDS011;6971;50.028;9.258;2023-06-14T04:21:33;7.70;;;6.87;;
13799;SDS011;6971;50.028;9.258;2023-06-14T04:26:34;9.13;;;8.23;;
13799;SDS011;6971;50.028;9.258;2023-06-14T04:31:36;8.57;;;6.37;;
13799;SDS011;6971;50.028;9.258;2023-06-14T04:36:39;7.90;;;5.73;;
13799;SDS011;6971;50.028;9.258;2023-06-14T04:41:41;7.90;;;6.03;;
13799;SDS011;6971;50.028;9.258;2023-06-14T04:46:42;8.10;;;5.90;;
13799;SDS011;6971;50.028;9.258;2023-06-14T04:51:46;6.60;;;5.87;;
13799;SDS011;6971;50.028;9.258;2023-06-14T04:56:51;8.17;;;5.50;;
13799;SDS011;6971;50.028;9.258;2023-06-14T05:01:53;7.20;;;5.67;;
13799;SDS011;6971;50.028;9.258;2023-06-14T05:06:54;9.87;;;5.50;;
13799;SDS011;6971;50.028;9.258;2023-06-14T05:11:55;6.43;;;5.73;;
13799;SDS011;6971;50.028;9.258;2023-06-14T05:16:56;7.13;;;5.50;;
13799;SDS011;6971;50.028;9.258;2023-06-14T05:21:57;8.17;;;5.60;;
13799;SDS011;6971;50.028;9.258;2023-06-14T05:26:58;9.00;;;5.40;;
13799;SDS011;6971;50.028;9.258;2023-06-14T05:31:58;7.13;;;4.60;;
13799;SDS011;6971;50.028;9.258;2023-06-14T05:36:59;5.77;;;4.77;;
13799;SDS011;6971;50.028;9.258;2023-06-14T05:42:00;7.87;;;5.37;;
13799;SDS011;6971;50.028;9.258;2023-06-14T05:47:00;8.60;;;4.90;;
13799;SDS011;6971;50.028;9.258;2023-06-14T05:52:01;6.53;;;4.50;;
13799;SDS011;6971;50.028;9.258;2023-06-14T05:57:01;6.03;;;4.47;;
13799;SDS011;6971;50.028;9.258;2023-06-14T06:02:03;6.53;;;4.93;;
13799;SDS011;6971;50.028;9.258;2023-06-14T06:07:04;5.80;;;4.40;;
13799;SDS011;6971;50.028;9.258;2023-06-14T06:12:06;5.90;;;4.70;;
13799;SDS011;6971;50.028;9.258;2023-06-14T06:17:10;5.43;;;3.90;;
13799;SDS011;6971;50.028;9.258;2023-06-14T06:22:10;7.20;;;3.43;;
13799;SDS011;6971;50.028;9.258;2023-06-14T06:27:11;6.00;;;3.50;;
13799;SDS011;6971;50.028;9.258;2023-06-14T06:32:12;7.47;;;3.47;;
13799;SDS011;6971;50.028;9.258;2023-06-14T06:37:13;9.23;;;3.50;;
13799;SDS011;6971;50.028;9.258;2023-06-14T06:42:14;4.30;;;3.27;;
13799;SDS011;6971;50.028;9.258;2023-06-14T06:47:15;3.97;;;3.00;;
13799;SDS011;6971;50.028;9.258;2023-06-14T06:52:15;4.00;;;3.10;;
13799;SDS011;6971;50.028;9.258;2023-06-14T06:57:16;4.97;;;3.03;;
13799;SDS011;6971;50.028;9.258;2023-06-14T07:02:16;3.35;;;2.92;;
13799;SDS011;6971;50.028;9.258;2023-06-14T07:07:17;3.47;;;2.90;;
13799;SDS011;6971;50.028;9.258;2023-06-14T07:12:17;3.60;;;2.60;;
13799;SDS011;6971;50.028;9.258;2023-06-14T07:17:18;5.43;;;2.90;;
13799;SDS011;6971;50.028;9.258;2023-06-14T07:22:18;6.82;;;2.70;;
13799;SDS011;6971;50.028;9.258;2023-06-14T07:27:19;4.37;;;3.20;;
13799;SDS011;6971;50.028;9.258;2023-06-14T07:32:20;3.47;;;2.50;;
13799;SDS011;6971;50.028;9.258;2023-06-14T07:37:20;2.73;;;2.50;;
13799;SDS011;6971;50.028;9.258;2023-06-14T07:42:21;5.00;;;2.53;;
13799;SDS011;6971;50.028;9.258;2023-06-14T07:47:21;4.20;;;2.70;;
13799;SDS011;6971;50.028;9.258;2023-06-14T07:52:21;3.03;;;2.60;;
13799;SDS011;6971;50.028;9.258;2023-06-14T07:57:22;3.33;;;2.67;;
13799;SDS011;6971;50.028;9.258;2023-06-14T08:02:22;2.53;;;2.33;;
13799;SDS011;6971;50.028;9.258;2023-06-14T08:07:23;2.93;;;2.27;;
13799;SDS011;6971;50.028;9.258;2023-06-14T08:12:23;2.90;;;2.03;;
13799;SDS011;6971;50.028;9.258;2023-06-14T08:17:23;2.50;;;2.30;;
13799;SDS011;6971;50.028;9.258;2023-06-14T08:22:24;2.33;;;2.00;;
13799;SDS011;6971;50.028;9.258;2023-06-14T08:27:25;4.33;;;2.37;;
13799;SDS011;6971;50.028;9.258;2023-06-14T08:32:29;2.50;;;2.30;;
13799;SDS011;6971;50.028;9.258;2023-06-14T08:37:30;3.30;;;3.00;;
13799;SDS011;6971;50.028;9.258;2023-06-14T08:42:30;3.73;;;2.67;;
13799;SDS011;6971;50.028;9.258;2023-06-14T08:47:32;5.63;;;2.90;;
13799;SDS011;6971;50.028;9.258;2023-06-14T08:52:37;4.90;;;2.97;;
13799;SDS011;6971;50.028;9.258;2023-06-14T08:57:46;3.83;;;3.03;;
13799;SDS011;6971;50.028;9.258;2023-06-14T09:02:51;3.33;;;3.03;;
13799;SDS011;6971;50.028;9.258;2023-06-14T09:07:57;6.80;;;3.33;;
13799;SDS011;6971;50.028;9.258;2023-06-14T09:13:01;2.83;;;2.60;;
13799;SDS011;6971;50.028;9.258;2023-06-14T09:18:02;8.10;;;3.17;;
13799;SDS011;6971;50.028;9.258;2023-06-14T09:23:03;4.60;;;2.90;;
13799;SDS011;6971;50.028;9.258;2023-06-14T09:28:08;6.80;;;3.30;;
13799;SDS011;6971;50.028;9.258;2023-06-14T09:33:08;4.67;;;3.33;;
13799;SDS011;6971;50.028;9.258;2023-06-14T09:38:09;6.83;;;3.50;;
13799;SDS011;6971;50.028;9.258;2023-06-14T09:43:10;4.30;;;3.50;;
13799;SDS011;6971;50.028;9.258;2023-06-14T09:48:10;4.67;;;2.60;;
13799;SDS011;6971;50.028;9.258;2023-06-14T09:53:18;5.50;;;3.50;;
13799;SDS011;6971;50.028;9.258;2023-06-14T09:58:22;6.87;;;3.37;;
13799;SDS011;6971;50.028;9.258;2023-06-14T10:03:27;6.10;;;3.70;;
13799;SDS011;6971;50.028;9.258;2023-06-14T10:08:30;5.87;;;2.77;;
13799;SDS011;6971;50.028;9.258;2023-06-14T10:13:33;3.17;;;2.87;;
13799;SDS011;6971;50.028;9.258;2023-06-14T10:23:44;6.73;;;3.63;;
13799;SDS011;6971;50.028;9.258;2023-06-14T10:28:55;6.20;;;3.13;;
13799;SDS011;6971;50.028;9.258;2023-06-14T10:33:59;5.10;;;2.97;;
13799;SDS011;6971;50.028;9.258;2023-06-14T10:39:21;2.97;;;2.77;;
13799;SDS011;6971;50.028;9.258;2023-06-14T10:49:39;4.30;;;3.10;;
13799;SDS011;6971;50.028;9.258;2023-06-14T10:55:09;6.47;;;3.27;;
13799;SDS011;6971;50.028;9.258;2023-06-14T11:00:14;3.43;;;2.90;;
13799;SDS011;6971;50.028;9.258;2023-06-14T11:05:24;4.43;;;3.20;;
13799;SDS011;6971;50.028;9.258;2023-06-14T11:10:36;5.03;;;3.03;;
13799;SDS011;6971;50.028;9.258;2023-06-14T11:15:38;6.43;;;2.80;;
13799;SDS011;6971;50.028;9.258;2023-06-14T11:20:46;4.17;;;2.50;;
13799;SDS011;6971;50.028;9.258;2023-06-14T11:25:50;5.03;;;2.80;;
13799;SDS011;6971;50.028;9.258;2023-06-14T11:31:01;5.07;;;3.10;;
13799;SDS011;6971;50.028;9.258;2023-06-14T11:36:05;2.87;;;2.67;;
13799;SDS011;6971;50.028;9.258;2023-06-14T11:41:08;8.53;;;2.70;;
13799;SDS011;6971;50.028;9.258;2023-06-14T11:46:12;3.83;;;2.57;;
13799;SDS011;6971;50.028;9.258;2023-06-14T11:51:14;4.20;;;2.80;;
13799;SDS011;6971;50.028;9.258;2023-06-14T11:56:14;3.07;;;2.73;;
13799;SDS011;6971;50.028;9.258;2023-06-14T12:01:18;3.03;;;2.83;;
13799;SDS011;6971;50.028;9.258;2023-06-14T12:06:27;4.53;;;2.63;;
13799;SDS011;6971;50.028;9.258;2023-06-14T12:11:34;3.97;;;2.90;;
13799;SDS011;6971;50.028;9.258;2023-06-14T12:16:36;3.23;;;2.50;;
13799;SDS011;6971;50.028;9.258;2023-06-14T12:21:38;4.13;;;2.53;;
13799;SDS011;6971;50.028;9.258;2023-06-14T12:26:45;4.13;;;2.50;;
13799;SDS011;6971;50.028;9.258;2023-06-14T12:31:49;2.67;;;2.40;;
13799;SDS011;6971;50.028;9.258;2023-06-14T12:36:54;4.07;;;2.37;;
13799;SDS011;6971;50.028;9.258;2023-06-14T12:41:54;3.20;;;2.87;;
13799;SDS011;6971;50.028;9.258;2023-06-14T12:46:55;3.23;;;2.83;;
13799;SDS011;6971;50.028;9.258;2023-06-14T12:51:55;9.37;;;2.90;;
13799;SDS011;6971;50.028;9.258;2023-06-14T12:56:56;2.90;;;2.53;;
13799;SDS011;6971;50.028;9.258;2023-06-14T13:01:56;4.00;;;2.70;;
13799;SDS011;6971;50.028;9.258;2023-06-14T13:06:56;2.87;;;2.30;;
13799;SDS011;6971;50.028;9.258;2023-06-14T13:11:57;3.30;;;2.47;;
13799;SDS011;6971;50.028;9.258;2023-06-14T13:16:57;4.27;;;2.67;;
13799;SDS011;6971;50.028;9.258;2023-06-14T13:21:57;4.80;;;2.37;;
13799;SDS011;6971;50.028;9.258;2023-06-14T13:26:58;2.40;;;2.20;;
13799;SDS011;6971;50.028;9.258;2023-06-14T13:31:58;2.57;;;2.20;;
13799;SDS011;6971;50.028;9.258;2023-06-14T13:36:59;3.20;;;2.67;;
13799;SDS011;6971;50.028;9.258;2023-06-14T13:41:59;2.60;;;2.40;;
13799;SDS011;6971;50.028;9.258;2023-06-14T13:46:59;3.60;;;2.93;;
13799;SDS011;6971;50.028;9.258;2023-06-14T13:52:00;2.70;;;2.50;;
13799;SDS011;6971;50.028;9.258;2023-06-14T13:57:00;4.43;;;2.63;;
13799;SDS011;6971;50.028;9.258;2023-06-14T14:02:01;3.07;;;2.53;;
13799;SDS011;6971;50.028;9.258;2023-06-14T14:07:02;3.13;;;2.47;;
13799;SDS011;6971;50.028;9.258;2023-06-14T14:12:04;4.53;;;2.40;;
13799;SDS011;6971;50.028;9.258;2023-06-14T14:17:05;4.97;;;2.50;;
13799;SDS011;6971;50.028;9.258;2023-06-14T14:22:06;6.33;;;2.80;;
13799;SDS011;6971;50.028;9.258;2023-06-14T14:27:07;3.27;;;2.40;;
13799;SDS011;6971;50.028;9.258;2023-06-14T14:32:07;3.53;;;2.50;;
13799;SDS011;6971;50.028;9.258;2023-06-14T14:37:10;2.37;;;2.20;;
13799;SDS011;6971;50.028;9.258;2023-06-14T14:42:11;3.03;;;2.70;;
13799;SDS011;6971;50.028;9.258;2023-06-14T14:47:12;3.83;;;2.70;;
13799;SDS011;6971;50.028;9.258;2023-06-14T14:52:13;2.47;;;2.27;;
13799;SDS011;6971;50.028;9.258;2023-06-14T14:57:17;3.53;;;2.20;;
13799;SDS011;6971;50.028;9.258;2023-06-14T15:02:17;3.37;;;2.70;;
13799;SDS011;6971;50.028;9.258;2023-06-14T15:07:17;2.67;;;2.47;;
13799;SDS011;6971;50.028;9.258;2023-06-14T15:12:18;2.70;;;2.40;;
13799;SDS011;6971;50.028;9.258;2023-06-14T15:17:20;3.63;;;2.40;;
13799;SDS011;6971;50.028;9.258;2023-06-14T15:22:21;2.77;;;2.50;;
13799;SDS011;6971;50.028;9.258;2023-06-14T15:27:21;5.90;;;2.50;;
13799;SDS011;6971;50.028;9.258;2023-06-14T15:32:22;3.53;;;2.40;;
13799;SDS011;6971;50.028;9.258;2023-06-14T15:37:22;4.23;;;2.47;;
13799;SDS011;6971;50.028;9.258;2023-06-14T15:42:23;2.97;;;2.50;;
13799;SDS011;6971;50.028;9.258;2023-06-14T15:47:23;2.63;;;2.43;;
13799;SDS011;6971;50.028;9.258;2023-06-14T15:52:24;3.07;;;2.83;;
13799;SDS011;6971;50.028;9.258;2023-06-14T15:57:24;3.90;;;2.50;;
13799;SDS011;6971;50.028;9.258;2023-06-14T16:02:25;3.43;;;3.10;;
13799;SDS011;6971;50.028;9.258;2023-06-14T16:07:26;2.83;;;2.60;;
13799;SDS011;6971;50.028;9.258;2023-06-14T16:12:26;3.20;;;2.73;;
13799;SDS011;6971;50.028;9.258;2023-06-14T16:17:26;3.57;;;2.67;;
13799;SDS011;6971;50.028;9.258;2023-06-14T16:22:27;3.53;;;2.90;;
13799;SDS011;6971;50.028;9.258;2023-06-14T16:27:27;3.30;;;3.00;;
13799;SDS011;6971;50.028;9.258;2023-06-14T16:32:28;3.00;;;2.80;;
13799;SDS011;6971;50.028;9.258;2023-06-14T16:37:28;3.10;;;2.80;;
13799;SDS011;6971;50.028;9.258;2023-06-14T16:42:29;4.53;;;2.73;;
13799;SDS011;6971;50.028;9.258;2023-06-14T16:47:29;4.27;;;2.73;;
13799;SDS011;6971;50.028;9.258;2023-06-14T16:52:29;3.20;;;2.43;;
13799;SDS011;6971;50.028;9.258;2023-06-14T16:57:30;4.40;;;2.70;;
13799;SDS011;6971;50.028;9.258;2023-06-14T17:02:30;4.77;;;3.13;;
13799;SDS011;6971;50.028;9.258;2023-06-14T17:07:30;3.92;;;2.90;;
13799;SDS011;6971;50.028;9.258;2023-06-14T17:12:31;3.30;;;2.85;;
13799;SDS011;6971;50.028;9.258;2023-06-14T17:17:31;6.70;;;2.87;;
13799;SDS011;6971;50.028;9.258;2023-06-14T17:22:31;2.73;;;2.50;;
13799;SDS011;6971;50.028;9.258;2023-06-14T17:27:32;4.03;;;2.93;;
13799;SDS011;6971;50.028;9.258;2023-06-14T17:32:32;3.65;;;2.70;;
13799;SDS011;6971;50.028;9.258;2023-06-14T17:37:32;3.13;;;2.67;;
13799;SDS011;6971;50.028;9.258;2023-06-14T17:42:33;3.97;;;2.97;;
13799;SDS011;6971;50.028;9.258;2023-06-14T17:47:33;2.93;;;2.73;;
13799;SDS011;6971;50.028;9.258;2023-06-14T17:52:33;3.10;;;2.80;;
13799;SDS011;6971;50.028;9.258;2023-06-14T17:57:34;3.17;;;2.53;;
13799;SDS011;6971;50.028;9.258;2023-06-14T18:02:34;3.90;;;2.63;;
13799;SDS011;6971;50.028;9.258;2023-06-14T18:07:35;8.23;;;4.17;;
13799;SDS011;6971;50.028;9.258;2023-06-14T18:12:38;3.93;;;3.50;;
13799;SDS011;6971;50.028;9.258;2023-06-14T18:17:38;3.38;;;2.83;;
13799;SDS011;6971;50.028;9.258;2023-06-14T18:22:38;9.77;;;8.87;;
13799;SDS011;6971;50.028;9.258;2023-06-14T18:27:39;5.35;;;3.08;;
13799;SDS011;6971;50.028;9.258;2023-06-14T18:32:39;2.87;;;2.60;;
13799;SDS011;6971;50.028;9.258;2023-06-14T18:37:41;3.60;;;3.30;;
13799;SDS011;6971;50.028;9.258;2023-06-14T18:42:42;3.33;;;2.90;;
13799;SDS011;6971;50.028;9.258;2023-06-14T18:47:42;4.57;;;2.97;;
13799;SDS011;6971;50.028;9.258;2023-06-14T18:52:43;3.53;;;2.43;;
13799;SDS011;6971;50.028;9.258;2023-06-14T18:57:44;3.30;;;3.00;;
13799;SDS011;6971;50.028;9.258;2023-06-14T19:02:45;3.30;;;3.00;;
13799;SDS011;6971;50.028;9.258;2023-06-14T19:07:46;4.87;;;3.50;;
13799;SDS011;6971;50.028;9.258;2023-06-14T19:12:46;5.20;;;3.30;;
13799;SDS011;6971;50.028;9.258;2023-06-14T19:17:54;3.93;;;3.23;;
13799;SDS011;6971;50.028;9.258;2023-06-14T19:22:55;3.50;;;3.20;;
13799;SDS011;6971;50.028;9.258;2023-06-14T19:27:55;4.43;;;3.00;;
13799;SDS011;6971;50.028;9.258;2023-06-14T19:32:56;3.60;;;3.30;;
13799;SDS011;6971;50.028;9.258;2023-06-14T19:37:56;4.50;;;3.50;;
13799;SDS011;6971;50.028;9.258;2023-06-14T19:42:57;4.90;;;2.80;;
13799;SDS011;6971;50.028;9.258;2023-06-14T19:47:57;3.27;;;2.97;;
13799;SDS011;6971;50.028;9.258;2023-06-14T19:52:58;5.30;;;3.43;;
13799;SDS011;6971;50.028;9.258;2023-06-14T19:58:01;4.30;;;3.40;;
13799;SDS011;6971;50.028;9.258;2023-06-14T20:03:02;3.63;;;3.33;;
13799;SDS011;6971;50.028;9.258;2023-06-14T20:08:03;4.57;;;4.07;;
13799;SDS011;6971;50.028;9.258;2023-06-14T20:13:05;5.00;;;4.13;;
13799;SDS011;6971;50.028;9.258;2023-06-14T20:18:05;3.90;;;3.50;;
13799;SDS011;6971;50.028;9.258;2023-06-14T20:23:06;5.83;;;3.70;;
13799;SDS011;6971;50.028;9.258;2023-06-14T20:28:06;3.30;;;3.10;;
13799;SDS011;6971;50.028;9.258;2023-06-14T20:33:07;3.73;;;3.27;;
13799;SDS011;6971;50.028;9.258;2023-06-14T20:38:07;4.37;;;3.80;;
13799;SDS011;6971;50.028;9.258;2023-06-14T20:43:07;5.13;;;3.90;;
13799;SDS011;6971;50.028;9.258;2023-06-14T20:48:11;5.33;;;3.60;;
13799;SDS011;6971;50.028;9.258;2023-06-14T20:53:11;3.90;;;3.60;;
13799;SDS011;6971;50.028;9.258;2023-06-14T20:58:12;4.10;;;3.63;;
13799;SDS011;6971;50.028;9.258;2023-06-14T21:03:12;4.43;;;4.13;;
13799;SDS011;6971;50.028;9.258;2023-06-14T21:08:13;3.80;;;3.50;;
13799;SDS011;6971;50.028;9.258;2023-06-14T21:13:13;3.97;;;3.67;;
13799;SDS011;6971;50.028;9.258;2023-06-14T21:18:13;5.87;;;5.37;;
13799;SDS011;6971;50.028;9.258;2023-06-14T21:23:14;4.67;;;4.20;;
13799;SDS011;6971;50.028;9.258;2023-06-14T21:28:14;3.70;;;3.40;;
13799;SDS011;6971;50.028;9.258;2023-06-14T21:33:15;5.97;;;3.23;;
13799;SDS011;6971;50.028;9.258;2023-06-14T21:38:18;3.67;;;3.37;;
13799;SDS011;6971;50.028;9.258;2023-06-14T21:43:18;3.70;;;3.40;;
13799;SDS011;6971;50.028;9.258;2023-06-14T21:48:18;4.37;;;3.23;;
13799;SDS011;6971;50.028;9.258;2023-06-14T21:53:18;3.70;;;3.40;;
13799;SDS011;6971;50.028;9.258;2023-06-14T21:58:19;4.13;;;3.70;;
13799;SDS011;6971;50.028;9.258;2023-06-14T22:03:19;3.90;;;3.60;;
13799;SDS011;6971;50.028;9.258;2023-06-14T22:08:21;6.30;;;3.87;;
13799;SDS011;6971;50.028;9.258;2023-06-14T22:13:24;3.93;;;3.63;;
13799;SDS011;6971;50.028;9.258;2023-06-14T22:18:26;5.70;;;3.80;;
13799;SDS011;6971;50.028;9.258;2023-06-14T22:23:28;3.43;;;3.13;;
13799;SDS011;6971;50.028;9.258;2023-06-14T22:28:37;4.67;;;4.10;;
13799;SDS011;6971;50.028;9.258;2023-06-14T22:33:45;3.90;;;3.60;;
13799;SDS011;6971;50.028;9.258;2023-06-14T22:38:46;4.17;;;3.77;;
13799;SDS011;6971;50.028;9.258;2023-06-14T22:43:47;3.77;;;3.47;;
13799;SDS011;6971;50.028;9.258;2023-06-14T22:48:47;3.43;;;3.10;;
13799;SDS011;6971;50.028;9.258;2023-06-14T22:53:50;6.10;;;2.83;;
13799;SDS011;6971;50.028;9.258;2023-06-14T22:58:51;3.60;;;2.83;;
13799;SDS011;6971;50.028;9.258;2023-06-14T23:03:53;3.30;;;3.07;;
13799;SDS011;6971;50.028;9.258;2023-06-14T23:08:55;3.40;;;3.10;;
13799;SDS011;6971;50.028;9.258;2023-06-14T23:13:59;3.67;;;3.37;;
13799;SDS011;6971;50.028;9.258;2023-06-14T23:19:00;4.43;;;3.43;;
13799;SDS011;6971;50.028;9.258;2023-06-14T23:24:00;3.70;;;3.40;;
13799;SDS011;6971;50.028;9.258;2023-06-14T23:29:02;3.20;;;2.90;;
13799;SDS011;6971;50.028;9.258;2023-06-14T23:34:04;3.00;;;2.80;;
13799;SDS011;6971;50.028;9.258;2023-06-14T23:39:04;3.30;;;3.10;;
13799;SDS011;6971;50.028;9.258;2023-06-14T23:44:05;3.60;;;3.30;;
13799;SDS011;6971;50.028;9.258;2023-06-14T23:49:06;4.20;;;3.20;;
13799;SDS011;6971;50.028;9.258;2023-06-14T23:54:07;3.97;;;3.20;;
13799;SDS011;6971;50.028;9.258;2023-06-14T23:59:09;3.50;;;3.20;;
